sensor_id;sensor_type;location;lat;lon;timestamp;P1;durP1;ratioP1;P2;durP2;ratioP2
46290;SDS011;32023;44.444;26.006;2023-04-01T00:04:32;11.70;;;8.20;;
46290;SDS011;32023;44.444;26.006;2023-04-01T00:06:58;20.17;;;9.10;;
46290;SDS011;32023;44.444;26.006;2023-04-01T00:09:26;14.00;;;9.07;;
46290;SDS011;32023;44.444;26.006;2023-04-01T00:11:52;13.75;;;8.10;;
46290;SDS011;32023;44.444;26.006;2023-04-01T00:14:19;17.45;;;8.88;;
46290;SDS011;32023;44.444;26.006;2023-04-01T00:16:45;14.20;;;9.55;;
46290;SDS011;32023;44.444;26.006;2023-04-01T00:19:12;11.35;;;7.57;;
46290;SDS011;32023;44.444;26.006;2023-04-01T00:21:44;12.80;;;8.82;;
46290;SDS011;32023;44.444;26.006;2023-04-01T00:26:42;13.55;;;8.80;;
46290;SDS011;32023;44.444;26.006;2023-04-01T00:29:12;16.45;;;9.57;;
46290;SDS011;32023;44.444;26.006;2023-04-01T00:31:45;13.75;;;9.07;;
46290;SDS011;32023;44.444;26.006;2023-04-01T00:34:13;15.38;;;9.80;;
46290;SDS011;32023;44.444;26.006;2023-04-01T00:36:50;16.58;;;12.07;;
46290;SDS011;32023;44.444;26.006;2023-04-01T00:39:18;16.92;;;11.82;;
46290;SDS011;32023;44.444;26.006;2023-04-01T00:41:46;14.38;;;9.90;;
46290;SDS011;32023;44.444;26.006;2023-04-01T00:47:20;12.35;;;8.82;;
46290;SDS011;32023;44.444;26.006;2023-04-01T00:49:51;17.02;;;9.88;;
46290;SDS011;32023;44.444;26.006;2023-04-01T00:52:23;16.67;;;9.27;;
46290;SDS011;32023;44.444;26.006;2023-04-01T00:55:08;14.25;;;8.75;;
46290;SDS011;32023;44.444;26.006;2023-04-01T00:57:40;13.57;;;8.27;;
46290;SDS011;32023;44.444;26.006;2023-04-01T01:00:10;14.98;;;9.45;;
46290;SDS011;32023;44.444;26.006;2023-04-01T01:02:41;15.05;;;8.63;;
46290;SDS011;32023;44.444;26.006;2023-04-01T01:05:11;15.63;;;9.18;;
46290;SDS011;32023;44.444;26.006;2023-04-01T01:10:52;15.35;;;8.82;;
46290;SDS011;32023;44.444;26.006;2023-04-01T01:16:00;16.70;;;9.93;;
46290;SDS011;32023;44.444;26.006;2023-04-01T01:18:48;17.98;;;9.25;;
46290;SDS011;32023;44.444;26.006;2023-04-01T01:38:02;14.05;;;9.48;;
46290;SDS011;32023;44.444;26.006;2023-04-01T01:40:41;15.65;;;9.52;;
46290;SDS011;32023;44.444;26.006;2023-04-01T01:43:11;15.65;;;9.32;;
46290;SDS011;32023;44.444;26.006;2023-04-01T01:45:51;18.00;;;10.07;;
46290;SDS011;32023;44.444;26.006;2023-04-01T01:48:22;17.80;;;10.18;;
46290;SDS011;32023;44.444;26.006;2023-04-01T01:50:58;15.15;;;10.15;;
46290;SDS011;32023;44.444;26.006;2023-04-01T01:53:28;17.42;;;11.63;;
46290;SDS011;32023;44.444;26.006;2023-04-01T01:56:05;18.75;;;10.50;;
46290;SDS011;32023;44.444;26.006;2023-04-01T01:58:35;19.98;;;11.00;;
46290;SDS011;32023;44.444;26.006;2023-04-01T02:01:14;20.20;;;10.93;;
46290;SDS011;32023;44.444;26.006;2023-04-01T02:03:48;19.75;;;11.65;;
46290;SDS011;32023;44.444;26.006;2023-04-01T02:12:06;23.42;;;13.32;;
46290;SDS011;32023;44.444;26.006;2023-04-01T02:14:43;23.88;;;14.52;;
46290;SDS011;32023;44.444;26.006;2023-04-01T02:17:19;22.15;;;13.27;;
46290;SDS011;32023;44.444;26.006;2023-04-01T02:19:57;27.58;;;12.25;;
46290;SDS011;32023;44.444;26.006;2023-04-01T02:22:31;19.90;;;12.13;;
46290;SDS011;32023;44.444;26.006;2023-04-01T02:25:07;19.73;;;12.30;;
46290;SDS011;32023;44.444;26.006;2023-04-01T02:27:38;22.30;;;12.48;;
46290;SDS011;32023;44.444;26.006;2023-04-01T02:30:05;21.50;;;12.13;;
46290;SDS011;32023;44.444;26.006;2023-04-01T02:32:35;30.45;;;15.23;;
46290;SDS011;32023;44.444;26.006;2023-04-01T02:35:08;28.60;;;14.05;;
46290;SDS011;32023;44.444;26.006;2023-04-01T02:40:13;27.92;;;13.77;;
46290;SDS011;32023;44.444;26.006;2023-04-01T02:42:41;28.88;;;15.18;;
46290;SDS011;32023;44.444;26.006;2023-04-01T02:45:08;25.67;;;15.07;;
46290;SDS011;32023;44.444;26.006;2023-04-01T02:47:43;26.73;;;14.68;;
46290;SDS011;32023;44.444;26.006;2023-04-01T02:50:11;24.95;;;15.40;;
46290;SDS011;32023;44.444;26.006;2023-04-01T02:52:56;20.38;;;14.70;;
46290;SDS011;32023;44.444;26.006;2023-04-01T02:55:23;28.00;;;14.98;;
46290;SDS011;32023;44.444;26.006;2023-04-01T02:57:49;24.05;;;15.05;;
46290;SDS011;32023;44.444;26.006;2023-04-01T03:00:15;22.17;;;14.30;;
46290;SDS011;32023;44.444;26.006;2023-04-01T03:02:42;23.80;;;14.43;;
46290;SDS011;32023;44.444;26.006;2023-04-01T03:05:09;22.05;;;14.23;;
46290;SDS011;32023;44.444;26.006;2023-04-01T03:07:50;25.92;;;15.75;;
46290;SDS011;32023;44.444;26.006;2023-04-01T03:10:17;28.75;;;16.13;;
46290;SDS011;32023;44.444;26.006;2023-04-01T03:12:43;30.05;;;16.50;;
46290;SDS011;32023;44.444;26.006;2023-04-01T03:15:11;25.10;;;15.95;;
46290;SDS011;32023;44.444;26.006;2023-04-01T03:17:40;24.35;;;15.40;;
46290;SDS011;32023;44.444;26.006;2023-04-01T03:20:07;24.77;;;15.85;;
46290;SDS011;32023;44.444;26.006;2023-04-01T03:22:46;31.50;;;17.20;;
46290;SDS011;32023;44.444;26.006;2023-04-01T03:25:18;30.90;;;16.10;;
46290;SDS011;32023;44.444;26.006;2023-04-01T03:27:45;27.13;;;16.48;;
46290;SDS011;32023;44.444;26.006;2023-04-01T03:30:11;26.15;;;16.98;;
46290;SDS011;32023;44.444;26.006;2023-04-01T03:32:52;30.98;;;16.52;;
46290;SDS011;32023;44.444;26.006;2023-04-01T03:35:18;26.05;;;16.35;;
46290;SDS011;32023;44.444;26.006;2023-04-01T03:37:45;27.42;;;15.85;;
46290;SDS011;32023;44.444;26.006;2023-04-01T03:40:11;30.52;;;16.67;;
46290;SDS011;32023;44.444;26.006;2023-04-01T03:42:38;25.10;;;16.10;;
46290;SDS011;32023;44.444;26.006;2023-04-01T03:45:05;24.10;;;16.42;;
46290;SDS011;32023;44.444;26.006;2023-04-01T03:47:35;24.30;;;15.75;;
46290;SDS011;32023;44.444;26.006;2023-04-01T03:50:01;24.25;;;17.52;;
46290;SDS011;32023;44.444;26.006;2023-04-01T03:52:32;27.80;;;17.13;;
46290;SDS011;32023;44.444;26.006;2023-04-01T03:55:01;26.80;;;16.88;;
46290;SDS011;32023;44.444;26.006;2023-04-01T03:57:27;28.77;;;17.40;;
46290;SDS011;32023;44.444;26.006;2023-04-01T03:59:55;24.75;;;16.70;;
46290;SDS011;32023;44.444;26.006;2023-04-01T04:02:22;25.80;;;17.08;;
46290;SDS011;32023;44.444;26.006;2023-04-01T04:04:48;28.88;;;17.70;;
46290;SDS011;32023;44.444;26.006;2023-04-01T04:07:14;30.83;;;17.98;;
46290;SDS011;32023;44.444;26.006;2023-04-01T04:09:46;27.05;;;17.55;;
46290;SDS011;32023;44.444;26.006;2023-04-01T04:12:13;24.05;;;16.95;;
46290;SDS011;32023;44.444;26.006;2023-04-01T04:14:40;23.17;;;16.15;;
46290;SDS011;32023;44.444;26.006;2023-04-01T04:17:12;22.55;;;15.85;;
46290;SDS011;32023;44.444;26.006;2023-04-01T04:19:41;23.20;;;15.85;;
46290;SDS011;32023;44.444;26.006;2023-04-01T04:22:08;28.50;;;17.05;;
46290;SDS011;32023;44.444;26.006;2023-04-01T04:24:52;28.48;;;17.83;;
46290;SDS011;32023;44.444;26.006;2023-04-01T04:27:26;25.13;;;17.33;;
46290;SDS011;32023;44.444;26.006;2023-04-01T04:29:52;23.83;;;16.25;;
46290;SDS011;32023;44.444;26.006;2023-04-01T04:32:19;21.90;;;15.93;;
46290;SDS011;32023;44.444;26.006;2023-04-01T04:34:45;26.13;;;17.10;;
46290;SDS011;32023;44.444;26.006;2023-04-01T04:37:11;30.95;;;17.25;;
46290;SDS011;32023;44.444;26.006;2023-04-01T04:39:38;28.67;;;17.75;;
46290;SDS011;32023;44.444;26.006;2023-04-01T04:42:09;26.38;;;17.33;;
46290;SDS011;32023;44.444;26.006;2023-04-01T04:44:37;28.52;;;18.25;;
46290;SDS011;32023;44.444;26.006;2023-04-01T04:49:43;35.75;;;18.48;;
46290;SDS011;32023;44.444;26.006;2023-04-01T04:52:11;27.30;;;17.38;;
46290;SDS011;32023;44.444;26.006;2023-04-01T04:54:37;29.40;;;18.45;;
46290;SDS011;32023;44.444;26.006;2023-04-01T04:57:15;28.65;;;16.98;;
46290;SDS011;32023;44.444;26.006;2023-04-01T04:59:42;26.52;;;16.77;;
46290;SDS011;32023;44.444;26.006;2023-04-01T05:02:08;33.75;;;18.60;;
46290;SDS011;32023;44.444;26.006;2023-04-01T05:04:35;29.42;;;17.65;;
46290;SDS011;32023;44.444;26.006;2023-04-01T05:07:04;23.50;;;16.60;;
46290;SDS011;32023;44.444;26.006;2023-04-01T05:09:30;23.80;;;16.80;;
46290;SDS011;32023;44.444;26.006;2023-04-01T05:11:57;25.50;;;16.40;;
46290;SDS011;32023;44.444;26.006;2023-04-01T05:14:23;25.27;;;16.00;;
46290;SDS011;32023;44.444;26.006;2023-04-01T05:19:22;24.83;;;16.25;;
46290;SDS011;32023;44.444;26.006;2023-04-01T05:21:52;25.23;;;16.75;;
46290;SDS011;32023;44.444;26.006;2023-04-01T05:24:19;25.70;;;15.73;;
46290;SDS011;32023;44.444;26.006;2023-04-01T05:26:45;23.58;;;16.48;;
46290;SDS011;32023;44.444;26.006;2023-04-01T05:29:11;23.20;;;17.02;;
46290;SDS011;32023;44.444;26.006;2023-04-01T05:31:38;25.63;;;17.25;;
46290;SDS011;32023;44.444;26.006;2023-04-01T05:34:04;28.65;;;17.42;;
46290;SDS011;32023;44.444;26.006;2023-04-01T05:36:40;29.33;;;17.30;;
46290;SDS011;32023;44.444;26.006;2023-04-01T05:39:08;28.00;;;17.50;;
46290;SDS011;32023;44.444;26.006;2023-04-01T05:41:35;34.75;;;18.48;;
46290;SDS011;32023;44.444;26.006;2023-04-01T05:44:10;25.10;;;17.50;;
46290;SDS011;32023;44.444;26.006;2023-04-01T05:49:19;26.75;;;17.65;;
46290;SDS011;32023;44.444;26.006;2023-04-01T05:51:46;24.88;;;17.02;;
46290;SDS011;32023;44.444;26.006;2023-04-01T05:54:12;23.65;;;15.88;;
46290;SDS011;32023;44.444;26.006;2023-04-01T05:56:38;28.77;;;17.50;;
46290;SDS011;32023;44.444;26.006;2023-04-01T05:59:05;23.73;;;17.85;;
46290;SDS011;32023;44.444;26.006;2023-04-01T06:01:31;26.67;;;17.85;;
46290;SDS011;32023;44.444;26.006;2023-04-01T06:03:57;32.72;;;18.40;;
46290;SDS011;32023;44.444;26.006;2023-04-01T06:06:27;27.30;;;17.30;;
46290;SDS011;32023;44.444;26.006;2023-04-01T06:08:57;24.98;;;16.65;;
46290;SDS011;32023;44.444;26.006;2023-04-01T06:11:34;25.05;;;15.52;;
46290;SDS011;32023;44.444;26.006;2023-04-01T06:14:31;26.23;;;16.27;;
46290;SDS011;32023;44.444;26.006;2023-04-01T06:42:20;35.38;;;20.80;;
46290;SDS011;32023;44.444;26.006;2023-04-01T06:45:35;31.30;;;18.63;;
46290;SDS011;32023;44.444;26.006;2023-04-01T06:54:17;25.92;;;16.05;;
46290;SDS011;32023;44.444;26.006;2023-04-01T06:57:00;25.55;;;15.65;;
46290;SDS011;32023;44.444;26.006;2023-04-01T06:59:49;26.30;;;17.70;;
46290;SDS011;32023;44.444;26.006;2023-04-01T07:02:29;37.85;;;17.38;;
46290;SDS011;32023;44.444;26.006;2023-04-01T07:07:44;26.85;;;16.30;;
46290;SDS011;32023;44.444;26.006;2023-04-01T07:16:47;25.95;;;15.90;;
46290;SDS011;32023;44.444;26.006;2023-04-01T07:19:33;21.88;;;15.57;;
46290;SDS011;32023;44.444;26.006;2023-04-01T07:25:02;36.33;;;15.93;;
46290;SDS011;32023;44.444;26.006;2023-04-01T07:27:31;28.05;;;15.80;;
46290;SDS011;32023;44.444;26.006;2023-04-01T07:29:57;29.52;;;16.52;;
46290;SDS011;32023;44.444;26.006;2023-04-01T07:38:26;23.65;;;16.60;;
46290;SDS011;32023;44.444;26.006;2023-04-01T07:41:22;27.42;;;17.00;;
46290;SDS011;32023;44.444;26.006;2023-04-01T07:44:03;30.23;;;16.95;;
46290;SDS011;32023;44.444;26.006;2023-04-01T07:49:25;28.73;;;18.10;;
46290;SDS011;32023;44.444;26.006;2023-04-01T07:52:26;31.88;;;18.60;;
46290;SDS011;32023;44.444;26.006;2023-04-01T07:55:03;37.90;;;21.20;;
46290;SDS011;32023;44.444;26.006;2023-04-01T07:57:51;33.65;;;20.30;;
46290;SDS011;32023;44.444;26.006;2023-04-01T08:00:27;34.63;;;21.13;;
46290;SDS011;32023;44.444;26.006;2023-04-01T08:06:11;35.75;;;22.08;;
46290;SDS011;32023;44.444;26.006;2023-04-01T08:08:41;34.25;;;21.27;;
46290;SDS011;32023;44.444;26.006;2023-04-01T08:25:48;34.05;;;20.80;;
46290;SDS011;32023;44.444;26.006;2023-04-01T08:32:11;28.63;;;20.05;;
46290;SDS011;32023;44.444;26.006;2023-04-01T08:35:02;25.87;;;19.00;;
46290;SDS011;32023;44.444;26.006;2023-04-01T08:37:42;35.30;;;20.23;;
46290;SDS011;32023;44.444;26.006;2023-04-01T08:53:46;36.65;;;19.88;;
46290;SDS011;32023;44.444;26.006;2023-04-01T08:56:33;30.38;;;18.92;;
46290;SDS011;32023;44.444;26.006;2023-04-01T09:10:49;28.42;;;21.67;;
46290;SDS011;32023;44.444;26.006;2023-04-01T09:25:06;26.05;;;16.80;;
46290;SDS011;32023;44.444;26.006;2023-04-01T09:31:12;33.70;;;17.92;;
46290;SDS011;32023;44.444;26.006;2023-04-01T09:42:37;25.27;;;17.40;;
46290;SDS011;32023;44.444;26.006;2023-04-01T09:45:09;20.40;;;16.02;;
46290;SDS011;32023;44.444;26.006;2023-04-01T09:48:02;26.02;;;17.77;;
46290;SDS011;32023;44.444;26.006;2023-04-01T09:51:09;23.85;;;17.58;;
46290;SDS011;32023;44.444;26.006;2023-04-01T10:02:38;20.48;;;14.95;;
46290;SDS011;32023;44.444;26.006;2023-04-01T10:17:00;23.65;;;14.77;;
46290;SDS011;32023;44.444;26.006;2023-04-01T10:33:54;20.65;;;13.65;;
46290;SDS011;32023;44.444;26.006;2023-04-01T10:36:54;23.60;;;12.88;;
46290;SDS011;32023;44.444;26.006;2023-04-01T11:20:07;14.18;;;10.50;;
46290;SDS011;32023;44.444;26.006;2023-04-01T11:55:21;17.52;;;9.55;;
46290;SDS011;32023;44.444;26.006;2023-04-01T11:58:09;20.98;;;14.60;;
46290;SDS011;32023;44.444;26.006;2023-04-01T12:22:12;9.32;;;6.60;;
46290;SDS011;32023;44.444;26.006;2023-04-01T12:36:53;10.50;;;7.07;;
46290;SDS011;32023;44.444;26.006;2023-04-01T12:40:06;10.38;;;7.00;;
46290;SDS011;32023;44.444;26.006;2023-04-01T12:57:45;18.48;;;10.25;;
46290;SDS011;32023;44.444;26.006;2023-04-01T13:00:25;15.55;;;10.45;;
46290;SDS011;32023;44.444;26.006;2023-04-01T13:45:23;10.55;;;6.32;;
46290;SDS011;32023;44.444;26.006;2023-04-01T13:54:38;12.05;;;6.70;;
46290;SDS011;32023;44.444;26.006;2023-04-01T13:57:37;10.15;;;6.18;;
46290;SDS011;32023;44.444;26.006;2023-04-01T14:11:39;11.82;;;6.15;;
46290;SDS011;32023;44.444;26.006;2023-04-01T14:34:53;11.15;;;5.72;;
46290;SDS011;32023;44.444;26.006;2023-04-01T14:37:48;14.00;;;6.88;;
46290;SDS011;32023;44.444;26.006;2023-04-01T14:40:58;19.00;;;8.02;;
46290;SDS011;32023;44.444;26.006;2023-04-01T14:46:23;8.40;;;5.05;;
46290;SDS011;32023;44.444;26.006;2023-04-01T14:49:14;7.95;;;5.30;;
46290;SDS011;32023;44.444;26.006;2023-04-01T14:51:55;12.07;;;7.05;;
46290;SDS011;32023;44.444;26.006;2023-04-01T14:54:38;10.75;;;5.95;;
46290;SDS011;32023;44.444;26.006;2023-04-01T14:57:12;14.38;;;6.22;;
46290;SDS011;32023;44.444;26.006;2023-04-01T14:59:48;13.82;;;6.55;;
46290;SDS011;32023;44.444;26.006;2023-04-01T15:14:30;8.38;;;5.20;;
46290;SDS011;32023;44.444;26.006;2023-04-01T15:16:49;9.57;;;5.00;;
46290;SDS011;32023;44.444;26.006;2023-04-01T15:19:31;10.77;;;6.43;;
46290;SDS011;32023;44.444;26.006;2023-04-01T15:33:37;14.20;;;7.15;;
46290;SDS011;32023;44.444;26.006;2023-04-01T15:39:24;12.73;;;7.22;;
46290;SDS011;32023;44.444;26.006;2023-04-01T15:48:13;9.32;;;5.60;;
46290;SDS011;32023;44.444;26.006;2023-04-01T16:26:08;20.02;;;9.30;;
46290;SDS011;32023;44.444;26.006;2023-04-01T16:31:58;15.82;;;10.40;;
46290;SDS011;32023;44.444;26.006;2023-04-01T16:37:53;17.15;;;10.35;;
46290;SDS011;32023;44.444;26.006;2023-04-01T16:41:29;19.25;;;10.35;;
46290;SDS011;32023;44.444;26.006;2023-04-01T16:43:42;15.77;;;8.40;;
46290;SDS011;32023;44.444;26.006;2023-04-01T16:46:23;17.60;;;10.05;;
46290;SDS011;32023;44.444;26.006;2023-04-01T16:55:20;15.05;;;9.68;;
46290;SDS011;32023;44.444;26.006;2023-04-01T16:57:55;18.43;;;10.20;;
46290;SDS011;32023;44.444;26.006;2023-04-01T17:03:26;18.63;;;10.85;;
46290;SDS011;32023;44.444;26.006;2023-04-01T17:17:56;20.02;;;11.65;;
46290;SDS011;32023;44.444;26.006;2023-04-01T17:20:41;17.33;;;9.95;;
46290;SDS011;32023;44.444;26.006;2023-04-01T17:26:09;16.48;;;11.15;;
46290;SDS011;32023;44.444;26.006;2023-04-01T17:31:37;19.30;;;11.30;;
46290;SDS011;32023;44.444;26.006;2023-04-01T17:34:23;20.88;;;10.27;;
46290;SDS011;32023;44.444;26.006;2023-04-01T17:37:06;15.95;;;10.60;;
46290;SDS011;32023;44.444;26.006;2023-04-01T17:43:20;17.85;;;9.95;;
46290;SDS011;32023;44.444;26.006;2023-04-01T17:57:02;25.90;;;15.07;;
46290;SDS011;32023;44.444;26.006;2023-04-01T18:02:57;29.08;;;17.00;;
46290;SDS011;32023;44.444;26.006;2023-04-01T18:20:54;21.83;;;12.77;;
46290;SDS011;32023;44.444;26.006;2023-04-01T18:23:27;20.85;;;12.07;;
46290;SDS011;32023;44.444;26.006;2023-04-01T18:26:14;18.92;;;11.40;;
46290;SDS011;32023;44.444;26.006;2023-04-01T18:29:04;18.23;;;11.65;;
46290;SDS011;32023;44.444;26.006;2023-04-01T18:50:18;20.40;;;10.45;;
46290;SDS011;32023;44.444;26.006;2023-04-01T18:56:09;31.98;;;10.70;;
46290;SDS011;32023;44.444;26.006;2023-04-01T18:59:03;23.77;;;10.27;;
46290;SDS011;32023;44.444;26.006;2023-04-01T19:01:47;16.42;;;10.65;;
46290;SDS011;32023;44.444;26.006;2023-04-01T19:04:46;26.15;;;12.25;;
46290;SDS011;32023;44.444;26.006;2023-04-01T19:37:23;21.05;;;9.27;;
46290;SDS011;32023;44.444;26.006;2023-04-01T19:40:08;16.50;;;8.57;;
46290;SDS011;32023;44.444;26.006;2023-04-01T19:42:59;16.58;;;9.32;;
46290;SDS011;32023;44.444;26.006;2023-04-01T20:04:55;15.93;;;8.45;;
46290;SDS011;32023;44.444;26.006;2023-04-01T20:07:52;14.38;;;8.80;;
46290;SDS011;32023;44.444;26.006;2023-04-01T20:20:03;13.80;;;8.52;;
46290;SDS011;32023;44.444;26.006;2023-04-01T20:23:01;11.45;;;7.50;;
46290;SDS011;32023;44.444;26.006;2023-04-01T20:25:51;16.90;;;7.90;;
46290;SDS011;32023;44.444;26.006;2023-04-01T20:28:36;16.65;;;7.30;;
46290;SDS011;32023;44.444;26.006;2023-04-01T20:34:15;17.77;;;8.85;;
46290;SDS011;32023;44.444;26.006;2023-04-01T20:37:02;16.77;;;8.82;;
46290;SDS011;32023;44.444;26.006;2023-04-01T20:48:34;17.77;;;8.15;;
46290;SDS011;32023;44.444;26.006;2023-04-01T20:51:26;15.43;;;7.60;;
46290;SDS011;32023;44.444;26.006;2023-04-01T20:54:27;14.70;;;8.20;;
46290;SDS011;32023;44.444;26.006;2023-04-01T20:57:09;12.82;;;7.60;;
46290;SDS011;32023;44.444;26.006;2023-04-01T21:02:52;13.00;;;8.05;;
46290;SDS011;32023;44.444;26.006;2023-04-01T21:17:00;13.27;;;6.70;;
46290;SDS011;32023;44.444;26.006;2023-04-01T21:19:38;11.00;;;5.32;;
46290;SDS011;32023;44.444;26.006;2023-04-01T21:22:45;8.80;;;5.10;;
46290;SDS011;32023;44.444;26.006;2023-04-01T21:49:15;12.80;;;7.28;;
46290;SDS011;32023;44.444;26.006;2023-04-01T21:51:57;11.40;;;4.97;;
46290;SDS011;32023;44.444;26.006;2023-04-01T22:06:42;11.90;;;6.60;;
46290;SDS011;32023;44.444;26.006;2023-04-01T22:09:29;9.50;;;6.85;;
46290;SDS011;32023;44.444;26.006;2023-04-01T22:12:20;8.15;;;6.32;;
46290;SDS011;32023;44.444;26.006;2023-04-01T22:17:42;12.38;;;6.18;;
46290;SDS011;32023;44.444;26.006;2023-04-01T22:20:42;11.38;;;6.10;;
46290;SDS011;32023;44.444;26.006;2023-04-01T22:26:07;11.68;;;6.72;;
46290;SDS011;32023;44.444;26.006;2023-04-01T22:31:16;11.68;;;7.65;;
46290;SDS011;32023;44.444;26.006;2023-04-01T22:33:53;10.30;;;7.75;;
46290;SDS011;32023;44.444;26.006;2023-04-01T22:37:32;11.77;;;8.27;;
46290;SDS011;32023;44.444;26.006;2023-04-01T22:42:50;10.70;;;8.00;;
46290;SDS011;32023;44.444;26.006;2023-04-01T22:46:10;11.85;;;8.63;;
46290;SDS011;32023;44.444;26.006;2023-04-01T22:48:34;9.80;;;7.57;;
46290;SDS011;32023;44.444;26.006;2023-04-01T22:54:04;12.45;;;8.75;;
46290;SDS011;32023;44.444;26.006;2023-04-01T22:56:36;11.68;;;7.97;;
46290;SDS011;32023;44.444;26.006;2023-04-01T23:01:55;12.40;;;8.50;;
46290;SDS011;32023;44.444;26.006;2023-04-01T23:04:33;10.45;;;9.00;;
46290;SDS011;32023;44.444;26.006;2023-04-01T23:07:13;12.30;;;9.00;;
46290;SDS011;32023;44.444;26.006;2023-04-01T23:09:58;14.18;;;8.90;;
46290;SDS011;32023;44.444;26.006;2023-04-01T23:12:38;8.50;;;7.50;;
46290;SDS011;32023;44.444;26.006;2023-04-01T23:15:10;8.45;;;6.57;;
46290;SDS011;32023;44.444;26.006;2023-04-01T23:23:15;12.00;;;9.43;;
46290;SDS011;32023;44.444;26.006;2023-04-01T23:28:48;16.40;;;13.40;;
46290;SDS011;32023;44.444;26.006;2023-04-01T23:31:37;16.10;;;13.45;;
46290;SDS011;32023;44.444;26.006;2023-04-01T23:36:49;20.20;;;14.98;;
46290;SDS011;32023;44.444;26.006;2023-04-01T23:39:53;15.57;;;13.38;;
46290;SDS011;32023;44.444;26.006;2023-04-01T23:42:27;15.35;;;12.23;;
46290;SDS011;32023;44.444;26.006;2023-04-01T23:47:53;15.07;;;12.05;;
46290;SDS011;32023;44.444;26.006;2023-04-01T23:50:38;15.23;;;11.18;;
46290;SDS011;32023;44.444;26.006;2023-04-01T23:56:07;11.60;;;8.27;;
46290;SDS011;32023;44.444;26.006;2023-04-01T23:58:40;9.25;;;7.10;;
